sensor_id;sensor_type;location;lat;lon;timestamp;P1;P2;P0
77354;PMS7003;66422;51.202;19.936;2024-02-21T00:06:16;14.00;9.00;6.00
77354;PMS7003;66422;51.202;19.936;2024-02-21T00:21:35;9.00;5.00;4.00
77354;PMS7003;66422;51.202;19.936;2024-02-21T00:36:55;9.00;6.00;5.00
77354;PMS7003;66422;51.202;19.936;2024-02-21T00:52:15;10.00;5.33;4.00
77354;PMS7003;66422;51.202;19.936;2024-02-21T01:07:34;12.00;8.00;6.00
77354;PMS7003;66422;51.202;19.936;2024-02-21T01:22:54;19.00;12.00;6.00
77354;PMS7003;66422;51.202;19.936;2024-02-21T01:38:13;15.33;7.33;6.67
77354;PMS7003;66422;51.202;19.936;2024-02-21T01:53:34;8.33;5.00;2.00
77354;PMS7003;66422;51.202;19.936;2024-02-21T02:08:57;23.00;11.00;6.00
77354;PMS7003;66422;51.202;19.936;2024-02-21T02:24:16;23.00;12.50;10.50
77354;PMS7003;66422;51.202;19.936;2024-02-21T02:39:37;16.00;10.00;8.00
77354;PMS7003;66422;51.202;19.936;2024-02-21T02:54:56;13.00;10.00;9.00
77354;PMS7003;66422;51.202;19.936;2024-02-21T03:10:16;13.50;11.00;7.00
77354;PMS7003;66422;51.202;19.936;2024-02-21T03:25:36;7.33;7.33;3.33
77354;PMS7003;66422;51.202;19.936;2024-02-21T03:40:56;19.67;11.33;6.67
77354;PMS7003;66422;51.202;19.936;2024-02-21T03:56:16;18.00;12.00;9.00
77354;PMS7003;66422;51.202;19.936;2024-02-21T04:11:35;24.25;15.00;10.50
77354;PMS7003;66422;51.202;19.936;2024-02-21T04:26:55;24.00;13.00;9.00
77354;PMS7003;66422;51.202;19.936;2024-02-21T04:42:14;21.50;14.00;8.25
77354;PMS7003;66422;51.202;19.936;2024-02-21T04:57:35;29.00;13.00;8.00
77354;PMS7003;66422;51.202;19.936;2024-02-21T05:12:54;24.00;20.00;13.00
77354;PMS7003;66422;51.202;19.936;2024-02-21T05:28:14;109.33;69.00;39.00
77354;PMS7003;66422;51.202;19.936;2024-02-21T05:43:34;33.50;25.50;17.00
77354;PMS7003;66422;51.202;19.936;2024-02-21T05:58:53;36.00;27.00;15.00
77354;PMS7003;66422;51.202;19.936;2024-02-21T06:14:13;27.00;22.00;12.50
77354;PMS7003;66422;51.202;19.936;2024-02-21T06:29:33;36.00;21.00;12.00
77354;PMS7003;66422;51.202;19.936;2024-02-21T06:44:53;22.50;16.00;12.00
77354;PMS7003;66422;51.202;19.936;2024-02-21T07:00:14;28.50;17.50;13.00
77354;PMS7003;66422;51.202;19.936;2024-02-21T07:15:35;37.50;29.50;14.00
77354;PMS7003;66422;51.202;19.936;2024-02-21T07:30:56;31.50;20.00;12.50
77354;PMS7003;66422;51.202;19.936;2024-02-21T07:46:19;33.00;19.00;13.00
77354;PMS7003;66422;51.202;19.936;2024-02-21T08:01:38;34.00;22.00;15.00
77354;PMS7003;66422;51.202;19.936;2024-02-21T08:16:58;34.00;19.00;10.00
77354;PMS7003;66422;51.202;19.936;2024-02-21T08:32:19;34.00;20.25;13.00
77354;PMS7003;66422;51.202;19.936;2024-02-21T08:47:41;30.00;16.00;11.00
77354;PMS7003;66422;51.202;19.936;2024-02-21T09:03:01;23.00;19.00;12.00
77354;PMS7003;66422;51.202;19.936;2024-02-21T09:18:21;31.00;20.00;12.00
77354;PMS7003;66422;51.202;19.936;2024-02-21T09:33:41;33.67;16.00;10.67
77354;PMS7003;66422;51.202;19.936;2024-02-21T10:04:26;33.00;20.33;12.00
77354;PMS7003;66422;51.202;19.936;2024-02-21T10:19:46;23.00;15.00;9.00
77354;PMS7003;66422;51.202;19.936;2024-02-21T10:35:06;19.33;17.67;10.33
77354;PMS7003;66422;51.202;19.936;2024-02-21T10:50:28;22.50;13.50;8.00
77354;PMS7003;66422;51.202;19.936;2024-02-21T11:05:52;20.00;13.00;10.00
77354;PMS7003;66422;51.202;19.936;2024-02-21T11:21:13;15.50;11.50;8.00
77354;PMS7003;66422;51.202;19.936;2024-02-21T11:36:32;18.00;13.00;10.00
77354;PMS7003;66422;51.202;19.936;2024-02-21T11:51:59;14.00;13.00;9.00
77354;PMS7003;66422;51.202;19.936;2024-02-21T12:07:20;12.25;8.00;7.00
77354;PMS7003;66422;51.202;19.936;2024-02-21T12:22:42;18.00;10.50;7.00
77354;PMS7003;66422;51.202;19.936;2024-02-21T12:38:02;15.33;11.00;8.00
77354;PMS7003;66422;51.202;19.936;2024-02-21T12:53:21;22.50;15.50;10.50
77354;PMS7003;66422;51.202;19.936;2024-02-21T13:08:42;17.25;16.00;11.00
77354;PMS7003;66422;51.202;19.936;2024-02-21T13:24:04;23.67;20.33;11.67
77354;PMS7003;66422;51.202;19.936;2024-02-21T13:39:24;19.00;14.00;11.00
77354;PMS7003;66422;51.202;19.936;2024-02-21T13:54:43;14.00;11.00;7.00
77354;PMS7003;66422;51.202;19.936;2024-02-21T14:10:03;14.00;10.00;7.00
77354;PMS7003;66422;51.202;19.936;2024-02-21T14:25:23;10.00;9.50;7.00
77354;PMS7003;66422;51.202;19.936;2024-02-21T14:40:43;13.50;9.00;5.50
77354;PMS7003;66422;51.202;19.936;2024-02-21T14:56:03;14.33;7.00;5.33
77354;PMS7003;66422;51.202;19.936;2024-02-21T15:11:23;13.50;9.00;6.00
77354;PMS7003;66422;51.202;19.936;2024-02-21T15:26:43;17.50;10.50;7.00
77354;PMS7003;66422;51.202;19.936;2024-02-21T15:42:03;12.00;9.50;6.50
77354;PMS7003;66422;51.202;19.936;2024-02-21T15:57:23;11.50;11.50;8.00
77354;PMS7003;66422;51.202;19.936;2024-02-21T16:12:43;18.00;10.00;7.00
77354;PMS7003;66422;51.202;19.936;2024-02-21T16:28:04;18.50;15.00;10.50
77354;PMS7003;66422;51.202;19.936;2024-02-21T16:43:24;13.33;11.00;9.00
77354;PMS7003;66422;51.202;19.936;2024-02-21T16:58:44;14.25;11.00;8.75
77354;PMS7003;66422;51.202;19.936;2024-02-21T17:14:03;15.00;11.00;9.00
77354;PMS7003;66422;51.202;19.936;2024-02-21T17:29:23;21.00;16.00;11.50
77354;PMS7003;66422;51.202;19.936;2024-02-21T17:44:43;14.50;6.50;2.50
77354;PMS7003;66422;51.202;19.936;2024-02-21T18:00:05;34.50;23.50;15.00
77354;PMS7003;66422;51.202;19.936;2024-02-21T18:15:35;28.67;20.00;13.00
77354;PMS7003;66422;51.202;19.936;2024-02-21T18:30:55;29.00;21.00;15.00
77354;PMS7003;66422;51.202;19.936;2024-02-21T18:46:16;32.50;24.75;15.25
77354;PMS7003;66422;51.202;19.936;2024-02-21T19:01:35;37.33;24.33;15.33
77354;PMS7003;66422;51.202;19.936;2024-02-21T19:16:55;36.00;19.00;14.00
77354;PMS7003;66422;51.202;19.936;2024-02-21T19:32:15;44.00;30.50;19.00
77354;PMS7003;66422;51.202;19.936;2024-02-21T19:47:36;24.00;22.00;15.00
77354;PMS7003;66422;51.202;19.936;2024-02-21T20:02:55;35.50;25.00;18.50
77354;PMS7003;66422;51.202;19.936;2024-02-21T20:18:16;40.00;28.25;19.00
77354;PMS7003;66422;51.202;19.936;2024-02-21T20:33:35;33.00;23.33;15.67
77354;PMS7003;66422;51.202;19.936;2024-02-21T20:48:55;43.33;26.00;18.00
77354;PMS7003;66422;51.202;19.936;2024-02-21T21:04:15;28.00;22.00;18.00
77354;PMS7003;66422;51.202;19.936;2024-02-21T21:19:35;39.00;27.00;18.00
77354;PMS7003;66422;51.202;19.936;2024-02-21T21:34:55;25.50;15.00;12.50
77354;PMS7003;66422;51.202;19.936;2024-02-21T21:50:16;37.00;27.00;18.50
77354;PMS7003;66422;51.202;19.936;2024-02-21T22:05:36;37.33;25.00;17.33
77354;PMS7003;66422;51.202;19.936;2024-02-21T22:20:56;42.00;27.00;16.00
77354;PMS7003;66422;51.202;19.936;2024-02-21T22:36:16;31.50;22.50;16.00
77354;PMS7003;66422;51.202;19.936;2024-02-21T22:51:36;38.50;26.00;16.50
77354;PMS7003;66422;51.202;19.936;2024-02-21T23:06:56;35.50;27.50;20.00
77354;PMS7003;66422;51.202;19.936;2024-02-21T23:22:16;38.50;30.00;20.00
77354;PMS7003;66422;51.202;19.936;2024-02-21T23:37:36;58.25;38.25;22.75
77354;PMS7003;66422;51.202;19.936;2024-02-21T23:52:56;54.67;33.00;19.33
